createdAt,value
2022-09-12T00:01:32.760Z,9.18
2022-09-12T00:04:00.098Z,8.93
2022-09-12T00:06:27.258Z,8.73
2022-09-12T00:08:54.532Z,8.35
2022-09-12T00:11:21.697Z,9.75
2022-09-12T00:13:48.933Z,9.07
2022-09-12T00:16:16.610Z,9.30
2022-09-12T00:18:45.272Z,8.38
2022-09-12T00:21:12.499Z,10.25
2022-09-12T00:23:39.707Z,10.57
2022-09-12T00:26:06.901Z,9.95
2022-09-12T00:28:34.083Z,10.95
2022-09-12T00:31:01.257Z,10.95
2022-09-12T00:33:28.749Z,11.43
2022-09-12T00:35:55.936Z,10.82
2022-09-12T00:38:23.262Z,11.20
2022-09-12T00:40:50.595Z,11.32
2022-09-12T00:43:17.830Z,10.77
2022-09-12T00:45:45.096Z,10.50
2022-09-12T00:48:12.481Z,10.50
2022-09-12T00:50:39.642Z,11.55
2022-09-12T00:53:06.846Z,11.32
2022-09-12T00:55:34.069Z,12.15
2022-09-12T00:58:01.324Z,12.68
2022-09-12T01:00:28.482Z,12.93
2022-09-12T01:02:55.739Z,13.48
2022-09-12T01:05:22.950Z,14.63
2022-09-12T01:07:50.368Z,16.00
2022-09-12T01:10:17.639Z,14.25
2022-09-12T01:12:44.906Z,14.95
2022-09-12T01:15:12.137Z,17.40
2022-09-12T01:17:39.500Z,16.95
2022-09-12T01:20:07.131Z,16.85
2022-09-12T01:22:34.364Z,16.67
2022-09-12T01:25:01.606Z,15.85
2022-09-12T01:27:28.850Z,17.60
2022-09-12T01:29:56.595Z,15.95
2022-09-12T01:32:23.958Z,16.85
2022-09-12T01:34:51.233Z,14.00
2022-09-12T01:37:18.500Z,15.85
2022-09-12T01:39:45.725Z,15.80
2022-09-12T01:42:12.952Z,17.60
2022-09-12T01:44:40.168Z,15.45
2022-09-12T01:47:09.413Z,14.48
2022-09-12T01:49:36.581Z,15.20
2022-09-12T01:52:04.563Z,16.08
2022-09-12T01:54:31.883Z,15.07
2022-09-12T01:56:59.075Z,14.20
2022-09-12T01:59:26.709Z,13.90
2022-09-12T02:01:55.593Z,13.13
2022-09-12T02:04:22.846Z,12.65
2022-09-12T02:06:50.064Z,13.30
2022-09-12T02:09:17.898Z,12.15
2022-09-12T02:11:45.110Z,10.60
2022-09-12T02:14:12.427Z,11.25
2022-09-12T02:16:39.830Z,11.20
2022-09-12T02:19:09.346Z,10.40
2022-09-12T02:21:36.550Z,9.23
2022-09-12T02:24:03.829Z,9.30
2022-09-12T02:26:31.036Z,9.35
2022-09-12T02:28:58.250Z,8.73
2022-09-12T02:31:25.510Z,8.55
2022-09-12T02:33:52.923Z,8.57
2022-09-12T02:36:22.229Z,8.05
2022-09-12T02:38:49.485Z,7.18
2022-09-12T02:41:16.813Z,7.05
2022-09-12T02:43:43.981Z,8.35
2022-09-12T02:46:11.271Z,7.65
2022-09-12T02:48:40.560Z,7.70
2022-09-12T02:51:08.709Z,7.97
2022-09-12T02:53:35.886Z,8.13
2022-09-12T02:56:03.097Z,8.02
2022-09-12T02:58:30.293Z,8.85
2022-09-12T03:00:57.544Z,8.23
2022-09-12T03:03:24.788Z,8.48
2022-09-12T03:05:52.007Z,8.13
2022-09-12T03:08:19.176Z,6.85
2022-09-12T03:10:46.433Z,8.05
2022-09-12T03:13:13.602Z,7.28
2022-09-12T03:15:40.817Z,7.47
2022-09-12T03:18:08.006Z,8.00
2022-09-12T03:20:35.205Z,6.20
2022-09-12T03:23:02.368Z,7.00
2022-09-12T03:25:29.605Z,7.45
2022-09-12T03:27:57.324Z,7.90
2022-09-12T03:30:24.611Z,7.75
2022-09-12T03:32:51.818Z,7.55
2022-09-12T03:35:22.830Z,6.90
2022-09-12T03:37:50.477Z,6.95
2022-09-12T03:40:17.846Z,7.03
2022-09-12T03:42:45.098Z,6.97
2022-09-12T03:45:12.406Z,7.55
2022-09-12T03:47:39.628Z,6.72
2022-09-12T03:50:06.905Z,7.18
2022-09-12T03:52:34.148Z,8.15
2022-09-12T03:55:01.453Z,7.10
2022-09-12T03:57:28.769Z,6.88
2022-09-12T03:59:55.978Z,7.50
2022-09-12T04:02:23.259Z,8.35
2022-09-12T04:04:50.448Z,7.93
2022-09-12T04:07:17.812Z,8.13
2022-09-12T04:09:44.998Z,8.13
2022-09-12T04:12:13.918Z,7.72
2022-09-12T04:14:41.158Z,7.78
2022-09-12T04:17:08.448Z,7.05
2022-09-12T04:19:35.631Z,7.55
2022-09-12T04:22:02.982Z,7.13
2022-09-12T04:24:30.213Z,7.43
2022-09-12T04:26:57.434Z,6.57
2022-09-12T04:29:24.618Z,7.75
2022-09-12T04:31:51.828Z,8.43
2022-09-12T04:34:19.546Z,7.35
2022-09-12T04:36:47.009Z,7.55
2022-09-12T04:39:14.188Z,7.47
2022-09-12T04:41:44.571Z,7.22
2022-09-12T04:44:11.907Z,7.32
2022-09-12T04:46:39.151Z,6.70
2022-09-12T04:49:06.390Z,7.03
2022-09-12T04:51:33.851Z,7.50
2022-09-12T04:54:01.125Z,6.53
2022-09-12T04:56:28.434Z,6.90
2022-09-12T04:58:55.752Z,7.45
2022-09-12T05:01:23.248Z,7.32
2022-09-12T05:03:50.509Z,7.85
2022-09-12T05:06:17.807Z,7.35
2022-09-12T05:08:45.066Z,7.78
2022-09-12T05:11:12.802Z,7.65
2022-09-12T05:13:40.170Z,7.97
2022-09-12T05:16:07.329Z,8.30
2022-09-12T05:18:34.565Z,7.47
2022-09-12T05:21:02.442Z,8.10
2022-09-12T05:23:29.702Z,7.85
2022-09-12T05:25:57.638Z,7.60
2022-09-12T05:28:24.945Z,7.40
2022-09-12T05:30:52.133Z,7.65
2022-09-12T05:33:24.493Z,7.78
2022-09-12T05:35:52.918Z,6.65
2022-09-12T05:38:20.305Z,6.28
2022-09-12T05:40:47.575Z,6.65
2022-09-12T05:43:14.827Z,6.05
2022-09-12T05:45:42.258Z,6.63
2022-09-12T05:48:09.559Z,5.50
2022-09-12T05:50:36.785Z,6.43
2022-09-12T05:53:04.041Z,5.60
2022-09-12T05:55:31.547Z,5.93
2022-09-12T05:57:58.910Z,4.93
2022-09-12T06:00:28.404Z,4.82
2022-09-12T06:02:58.838Z,5.10
2022-09-12T06:05:26.118Z,5.65
2022-09-12T06:07:53.375Z,5.00
2022-09-12T06:10:22.301Z,5.07
2022-09-12T06:12:49.501Z,4.70
2022-09-12T06:15:17.043Z,4.65
2022-09-12T06:17:46.412Z,4.97
2022-09-12T06:20:16.818Z,4.20
2022-09-12T06:22:44.133Z,4.93
2022-09-12T06:25:11.579Z,4.30
2022-09-12T06:27:38.736Z,4.00
2022-09-12T06:30:07.020Z,3.75
2022-09-12T06:32:34.874Z,3.58
2022-09-12T06:35:02.358Z,3.70
2022-09-12T06:37:29.591Z,4.05
2022-09-12T06:39:56.877Z,4.18
2022-09-12T06:42:24.830Z,3.72
2022-09-12T06:44:57.177Z,3.83
2022-09-12T06:47:24.470Z,3.17
2022-09-12T06:49:51.673Z,3.60
2022-09-12T06:52:18.974Z,3.22
2022-09-12T06:54:47.520Z,3.30
2022-09-12T06:57:14.809Z,3.40
2022-09-12T06:59:42.531Z,2.83
2022-09-12T07:02:10.015Z,2.63
2022-09-12T07:04:37.264Z,2.80
2022-09-12T07:07:04.572Z,3.28
2022-09-12T07:09:32.184Z,2.80
2022-09-12T07:12:00.870Z,2.67
2022-09-12T07:14:28.153Z,2.60
2022-09-12T07:16:55.471Z,3.08
2022-09-12T07:19:22.706Z,2.97
2022-09-12T07:21:50.034Z,2.60
2022-09-12T07:24:17.339Z,2.90
2022-09-12T07:26:44.569Z,2.60
2022-09-12T07:29:35.991Z,2.22
2022-09-12T07:32:01.660Z,2.60
2022-09-12T07:34:28.927Z,2.30
2022-09-12T07:36:56.118Z,2.00
2022-09-12T07:39:23.345Z,2.10
2022-09-12T07:41:50.651Z,2.20
2022-09-12T07:44:17.833Z,2.30
2022-09-12T07:46:45.037Z,2.08
2022-09-12T07:49:12.325Z,2.00
2022-09-12T07:51:39.511Z,2.10
2022-09-12T07:54:06.730Z,2.20
2022-09-12T07:56:38.714Z,2.10
2022-09-12T07:59:06.756Z,1.60
2022-09-12T08:01:34.027Z,1.90
2022-09-12T08:04:01.687Z,1.90
2022-09-12T08:06:30.351Z,1.52
2022-09-12T08:08:57.645Z,1.40
2022-09-12T08:11:25.051Z,1.80
2022-09-12T08:13:55.652Z,1.45
2022-09-12T08:16:23.131Z,1.23
2022-09-12T08:18:50.458Z,1.42
2022-09-12T08:21:17.644Z,1.38
2022-09-12T08:23:44.944Z,1.40
2022-09-12T08:26:12.242Z,1.20
2022-09-12T08:28:43.388Z,1.10
2022-09-12T08:31:10.693Z,2.08
2022-09-12T08:33:37.946Z,1.50
2022-09-12T08:36:05.800Z,1.33
2022-09-12T08:38:33.046Z,1.25
2022-09-12T08:41:00.295Z,1.45
2022-09-12T08:43:27.591Z,1.30
2022-09-12T08:45:54.892Z,1.30
2022-09-12T08:48:22.104Z,1.92
2022-09-12T08:50:50.140Z,1.30
2022-09-12T08:53:17.507Z,1.08
2022-09-12T08:55:44.760Z,1.20
2022-09-12T08:58:11.924Z,1.40
2022-09-12T09:00:40.640Z,1.45
2022-09-12T09:03:07.938Z,2.05
2022-09-12T09:05:35.146Z,1.02
2022-09-12T09:08:02.350Z,1.08
2022-09-12T09:10:29.550Z,1.17
2022-09-12T09:12:56.827Z,1.23
2022-09-12T09:15:25.021Z,1.23
2022-09-12T09:17:52.194Z,1.08
2022-09-12T09:20:21.128Z,1.23
2022-09-12T09:22:48.471Z,1.55
2022-09-12T09:25:16.166Z,1.00
2022-09-12T09:27:44.054Z,1.48
2022-09-12T09:30:11.341Z,1.20
2022-09-12T09:32:38.629Z,1.33
2022-09-12T09:35:05.886Z,1.67
2022-09-12T09:37:33.170Z,1.75
2022-09-12T09:40:00.415Z,1.15
2022-09-12T09:42:27.590Z,1.40
2022-09-12T09:44:54.876Z,1.40
2022-09-12T09:47:22.122Z,1.45
2022-09-12T09:49:49.499Z,1.83
2022-09-12T09:52:16.804Z,2.30
2022-09-12T09:54:44.067Z,1.83
2022-09-12T09:57:11.228Z,1.85
2022-09-12T09:59:38.518Z,1.83
2022-09-12T10:02:05.754Z,1.80
2022-09-12T10:04:34.532Z,1.45
2022-09-12T10:07:04.513Z,2.03
2022-09-12T10:09:34.877Z,2.00
2022-09-12T10:12:02.217Z,2.85
2022-09-12T10:14:29.556Z,2.35
2022-09-12T10:16:57.648Z,2.05
2022-09-12T10:19:26.075Z,2.60
2022-09-12T10:21:53.333Z,2.60
2022-09-12T10:24:20.521Z,3.13
2022-09-12T10:26:47.768Z,6.55
2022-09-12T10:29:15.126Z,6.05
2022-09-12T10:31:43.200Z,5.18
2022-09-12T10:34:10.399Z,3.50
2022-09-12T10:36:37.687Z,3.58
2022-09-12T10:39:04.827Z,2.80
2022-09-12T10:41:31.994Z,2.88
2022-09-12T10:43:59.227Z,4.00
2022-09-12T10:46:26.800Z,2.45
2022-09-12T10:48:54.079Z,2.40
2022-09-12T10:51:21.402Z,2.33
2022-09-12T10:53:48.722Z,2.10
2022-09-12T10:56:15.973Z,2.20
2022-09-12T10:58:43.221Z,1.30
2022-09-12T11:01:10.512Z,1.60
2022-09-12T11:03:37.805Z,1.67
2022-09-12T11:06:05.008Z,1.83
2022-09-12T11:08:32.905Z,1.73
2022-09-12T11:11:00.107Z,1.70
2022-09-12T11:13:27.473Z,2.00
2022-09-12T11:15:54.644Z,1.60
2022-09-12T11:18:21.923Z,1.67
2022-09-12T11:20:49.521Z,1.30
2022-09-12T11:23:17.143Z,1.75
2022-09-12T11:25:44.389Z,1.30
2022-09-12T11:28:11.660Z,1.30
2022-09-12T11:30:39.006Z,1.20
2022-09-12T11:33:06.393Z,1.20
2022-09-12T11:35:33.585Z,1.00
2022-09-12T11:38:00.869Z,1.10
2022-09-12T11:40:28.604Z,1.25
2022-09-12T11:42:56.234Z,1.00
2022-09-12T11:45:23.384Z,1.17
2022-09-12T11:47:50.645Z,1.15
2022-09-12T11:50:18.008Z,1.05
2022-09-12T11:52:45.247Z,1.20
2022-09-12T11:55:12.451Z,1.15
2022-09-12T11:57:40.094Z,1.38
2022-09-12T12:00:09.849Z,1.00
2022-09-12T12:02:37.547Z,1.20
2022-09-12T12:05:05.319Z,1.40
2022-09-12T12:07:32.711Z,0.88
2022-09-12T12:10:00.002Z,1.10
2022-09-12T12:12:27.280Z,1.27
2022-09-12T12:14:54.577Z,1.67
2022-09-12T12:17:21.890Z,1.08
2022-09-12T12:19:50.929Z,1.40
2022-09-12T12:22:18.544Z,1.33
2022-09-12T12:24:45.714Z,1.00
2022-09-12T12:27:12.943Z,1.30
2022-09-12T12:29:43.537Z,1.35
2022-09-12T12:32:11.552Z,1.02
2022-09-12T12:34:38.825Z,1.20
2022-09-12T12:37:07.414Z,1.00
2022-09-12T12:39:34.745Z,1.15
2022-09-12T12:42:02.057Z,1.05
2022-09-12T12:44:29.212Z,0.90
2022-09-12T12:46:56.511Z,1.13
2022-09-12T12:49:23.759Z,1.70
2022-09-12T12:51:51.006Z,0.95
2022-09-12T12:54:18.300Z,0.95
2022-09-12T12:56:45.614Z,1.10
2022-09-12T12:59:12.807Z,0.88
2022-09-12T13:01:41.202Z,1.00
2022-09-12T13:04:08.513Z,0.98
2022-09-12T13:06:35.992Z,0.90
2022-09-12T13:09:03.254Z,0.95
2022-09-12T13:11:30.563Z,1.00
2022-09-12T13:13:57.936Z,0.70
2022-09-12T13:16:25.224Z,1.10
2022-09-12T13:18:52.500Z,0.80
2022-09-12T13:21:19.737Z,0.88
2022-09-12T13:23:47.724Z,0.77
2022-09-12T13:26:14.973Z,0.93
2022-09-12T13:28:42.180Z,0.70
2022-09-12T13:31:09.448Z,0.88
2022-09-12T13:33:36.934Z,0.85
2022-09-12T13:36:04.121Z,0.80
2022-09-12T13:38:31.416Z,1.17
2022-09-12T13:40:58.989Z,1.25
2022-09-12T13:43:26.177Z,1.13
2022-09-12T13:45:53.425Z,1.02
2022-09-12T13:48:20.630Z,1.00
2022-09-12T13:50:47.887Z,1.10
2022-09-12T13:53:15.137Z,1.05
2022-09-12T13:55:42.485Z,1.27
2022-09-12T13:58:09.718Z,1.20
2022-09-12T14:00:37.947Z,1.30
2022-09-12T14:03:24.025Z,1.17
2022-09-12T14:05:51.268Z,1.52
2022-09-12T14:08:18.559Z,1.25
2022-09-12T14:10:47.832Z,1.60
2022-09-12T14:13:15.496Z,1.20
2022-09-12T14:15:42.749Z,0.90
2022-09-12T14:18:10.362Z,0.90
2022-09-12T14:20:37.825Z,0.90
2022-09-12T14:23:05.072Z,1.20
2022-09-12T14:25:32.489Z,0.85
2022-09-12T14:27:59.709Z,0.98
2022-09-12T14:30:26.940Z,1.52
2022-09-12T14:32:54.401Z,0.70
2022-09-12T14:35:21.694Z,0.80
2022-09-12T14:37:48.869Z,1.98
2022-09-12T14:40:16.200Z,0.90
2022-09-12T14:42:43.372Z,0.85
2022-09-12T14:45:13.168Z,1.30
2022-09-12T14:47:40.414Z,0.75
2022-09-12T14:50:11.096Z,0.77
2022-09-12T14:52:39.113Z,1.23
2022-09-12T14:55:06.316Z,0.95
2022-09-12T14:57:33.515Z,1.00
2022-09-12T15:00:00.727Z,1.00
2022-09-12T15:02:28.009Z,1.00
2022-09-12T15:04:55.318Z,0.70
2022-09-12T15:07:22.960Z,3.15
2022-09-12T15:09:50.225Z,2.10
2022-09-12T15:12:17.466Z,1.92
2022-09-12T15:14:44.672Z,1.20
2022-09-12T15:17:12.022Z,0.98
2022-09-12T15:19:39.218Z,1.05
2022-09-12T15:22:06.431Z,0.82
2022-09-12T15:24:33.601Z,0.80
2022-09-12T15:27:00.849Z,0.93
2022-09-12T15:29:28.081Z,0.98
2022-09-12T15:31:55.322Z,0.93
2022-09-12T15:34:22.522Z,0.93
2022-09-12T15:36:49.742Z,0.90
2022-09-12T15:39:16.996Z,0.95
2022-09-12T15:41:44.201Z,1.25
2022-09-12T15:44:11.408Z,0.80
2022-09-12T15:46:38.849Z,0.82
2022-09-12T15:49:07.033Z,1.15
2022-09-12T15:51:34.293Z,0.80
2022-09-12T15:54:01.553Z,0.80
2022-09-12T15:56:28.926Z,1.02
2022-09-12T15:59:00.163Z,1.40
2022-09-12T16:01:27.809Z,1.30
2022-09-12T16:03:55.293Z,1.00
2022-09-12T16:06:22.638Z,0.85
2022-09-12T16:08:49.967Z,0.90
2022-09-12T16:11:17.293Z,1.20
2022-09-12T16:13:44.445Z,1.02
2022-09-12T16:16:11.730Z,1.00
2022-09-12T16:18:38.954Z,1.00
2022-09-12T16:21:07.501Z,0.82
2022-09-12T16:23:39.424Z,1.05
2022-09-12T16:26:06.711Z,1.00
2022-09-12T16:28:34.099Z,1.02
2022-09-12T16:31:01.503Z,0.90
2022-09-12T16:33:28.760Z,0.90
2022-09-12T16:35:55.946Z,0.80
2022-09-12T16:38:23.226Z,1.17
2022-09-12T16:40:50.414Z,1.48
2022-09-12T16:43:17.816Z,0.60
2022-09-12T16:45:45.153Z,1.50
2022-09-12T16:48:12.501Z,1.08
2022-09-12T16:50:39.641Z,0.90
2022-09-12T16:53:06.995Z,1.00
2022-09-12T16:55:34.265Z,1.08
2022-09-12T16:58:01.555Z,1.30
2022-09-12T17:00:28.867Z,0.85
2022-09-12T17:02:56.222Z,0.90
2022-09-12T17:05:24.038Z,0.80
2022-09-12T17:07:51.363Z,0.90
2022-09-12T17:10:18.682Z,1.38
2022-09-12T17:12:45.885Z,0.68
2022-09-12T17:15:13.146Z,0.70
2022-09-12T17:17:40.411Z,1.00
2022-09-12T17:20:07.841Z,1.08
2022-09-12T17:22:35.063Z,2.72
2022-09-12T17:25:02.244Z,1.25
2022-09-12T17:27:29.537Z,1.55
2022-09-12T17:29:56.713Z,1.08
2022-09-12T17:32:24.025Z,0.88
2022-09-12T17:34:51.486Z,1.15
2022-09-12T17:37:18.772Z,1.08
2022-09-12T17:39:46.032Z,0.90
2022-09-12T17:42:13.307Z,0.80
2022-09-12T17:44:40.537Z,1.20
2022-09-12T17:47:07.770Z,1.42
2022-09-12T17:49:35.075Z,1.25
2022-09-12T17:52:02.438Z,1.75
2022-09-12T17:54:29.617Z,1.15
2022-09-12T17:56:56.942Z,2.83
2022-09-12T17:59:24.892Z,5.80
2022-09-12T18:02:11.144Z,6.35
2022-09-12T18:04:38.797Z,6.05
2022-09-12T18:07:06.024Z,6.43
2022-09-12T18:09:33.371Z,7.55
2022-09-12T18:12:00.563Z,7.68
2022-09-12T18:14:27.807Z,6.72
2022-09-12T18:16:57.182Z,6.72
2022-09-12T18:19:24.482Z,7.28
2022-09-12T18:21:51.713Z,5.15
2022-09-12T18:24:18.939Z,5.78
2022-09-12T18:26:46.100Z,4.70
2022-09-12T18:29:13.533Z,4.63
2022-09-12T18:31:40.799Z,5.15
2022-09-12T18:34:12.688Z,4.22
2022-09-12T18:36:39.968Z,3.25
2022-09-12T18:39:08.554Z,3.13
2022-09-12T18:41:36.080Z,4.20
2022-09-12T18:44:03.821Z,4.40
2022-09-12T18:46:31.069Z,4.45
2022-09-12T18:48:58.294Z,4.68
2022-09-12T18:51:25.910Z,4.93
2022-09-12T18:53:53.467Z,4.03
2022-09-12T18:56:20.720Z,3.15
2022-09-12T18:58:48.132Z,2.60
2022-09-12T19:01:15.601Z,2.65
2022-09-12T19:03:42.946Z,2.00
2022-09-12T19:06:11.732Z,2.00
2022-09-12T19:08:39.173Z,2.25
2022-09-12T19:11:06.515Z,1.88
2022-09-12T19:13:33.698Z,2.05
2022-09-12T19:16:01.553Z,1.70
2022-09-12T19:18:28.771Z,1.70
2022-09-12T19:20:55.963Z,2.05
2022-09-12T19:23:23.195Z,1.48
2022-09-12T19:25:50.428Z,1.60
2022-09-12T19:28:17.634Z,1.70
2022-09-12T19:30:45.041Z,1.70
2022-09-12T19:33:12.178Z,2.05
2022-09-12T19:35:39.411Z,1.50
2022-09-12T19:38:06.695Z,2.20
2022-09-12T19:40:33.943Z,2.67
2022-09-12T19:43:01.163Z,2.83
2022-09-12T19:45:28.538Z,2.10
2022-09-12T19:47:55.741Z,2.42
2022-09-12T19:50:22.949Z,2.13
2022-09-12T19:52:50.272Z,2.30
2022-09-12T19:55:17.740Z,2.17
2022-09-12T19:57:44.871Z,2.63
2022-09-12T20:00:12.248Z,2.15
2022-09-12T20:02:39.535Z,2.10
2022-09-12T20:05:06.941Z,2.13
2022-09-12T20:07:34.184Z,2.85
2022-09-12T20:10:01.975Z,2.55
2022-09-12T20:12:29.200Z,2.63
2022-09-12T20:14:56.657Z,2.80
2022-09-12T20:17:23.812Z,2.40
2022-09-12T20:19:51.094Z,2.80
2022-09-12T20:22:18.340Z,2.88
2022-09-12T20:24:45.601Z,2.50
2022-09-12T20:27:12.858Z,2.70
2022-09-12T20:29:40.120Z,2.80
2022-09-12T20:32:07.311Z,2.63
2022-09-12T20:34:34.510Z,2.45
2022-09-12T20:37:01.806Z,2.58
2022-09-12T20:39:29.141Z,3.22
2022-09-12T20:41:56.353Z,3.45
2022-09-12T20:44:23.718Z,4.05
2022-09-12T20:46:51.004Z,5.05
2022-09-12T20:49:18.328Z,4.40
2022-09-12T20:51:45.654Z,5.03
2022-09-12T20:54:12.912Z,5.43
2022-09-12T20:56:40.141Z,4.72
2022-09-12T20:59:10.772Z,5.13
2022-09-12T21:01:38.112Z,5.22
2022-09-12T21:04:05.485Z,5.75
2022-09-12T21:06:32.762Z,6.38
2022-09-12T21:09:00.462Z,4.90
2022-09-12T21:11:27.750Z,3.60
2022-09-12T21:13:55.210Z,3.85
2022-09-12T21:16:22.442Z,4.28
2022-09-12T21:18:49.708Z,5.50
2022-09-12T21:21:17.051Z,4.53
2022-09-12T21:23:44.306Z,3.83
2022-09-12T21:26:12.022Z,4.15
2022-09-12T21:28:39.337Z,4.20
2022-09-12T21:31:06.597Z,4.10
2022-09-12T21:33:33.942Z,4.50
2022-09-12T21:36:01.177Z,4.78
2022-09-12T21:38:28.358Z,4.57
2022-09-12T21:41:01.722Z,4.13
2022-09-12T21:43:30.067Z,4.13
2022-09-12T21:45:57.299Z,4.32
2022-09-12T21:48:24.574Z,4.85
2022-09-12T21:50:51.772Z,5.60
2022-09-12T21:53:19.052Z,6.00
2022-09-12T21:55:47.237Z,4.93
2022-09-12T21:58:14.583Z,4.75
2022-09-12T22:00:41.892Z,5.43
2022-09-12T22:03:10.410Z,5.32
2022-09-12T22:05:40.118Z,5.30
2022-09-12T22:08:07.370Z,5.47
2022-09-12T22:10:34.720Z,5.57
2022-09-12T22:13:02.078Z,4.97
2022-09-12T22:15:40.510Z,5.07
2022-09-12T22:18:08.560Z,5.47
2022-09-12T22:20:35.807Z,5.03
2022-09-12T22:23:24.797Z,5.43
2022-09-12T22:25:52.337Z,5.90
2022-09-12T22:28:19.810Z,5.65
2022-09-12T22:30:47.317Z,6.50
2022-09-12T22:33:14.465Z,5.72
2022-09-12T22:35:42.542Z,6.47
2022-09-12T22:38:09.791Z,7.03
2022-09-12T22:40:37.040Z,6.75
2022-09-12T22:43:04.927Z,6.00
2022-09-12T22:45:32.596Z,6.15
2022-09-12T22:48:00.916Z,5.70
2022-09-12T22:50:28.717Z,6.25
2022-09-12T22:52:55.960Z,5.95
2022-09-12T22:55:23.191Z,6.60
2022-09-12T22:57:50.360Z,6.30
2022-09-12T23:00:19.525Z,6.47
2022-09-12T23:02:46.862Z,6.07
2022-09-12T23:05:14.184Z,6.10
2022-09-12T23:07:41.454Z,5.43
2022-09-12T23:10:08.690Z,5.32
2022-09-12T23:12:35.854Z,5.85
2022-09-12T23:15:03.076Z,6.50
2022-09-12T23:17:30.298Z,5.75
2022-09-12T23:19:57.607Z,5.47
2022-09-12T23:22:24.801Z,5.07
2022-09-12T23:24:52.082Z,4.95
2022-09-12T23:27:19.284Z,6.43
2022-09-12T23:29:47.017Z,5.00
2022-09-12T23:32:14.224Z,5.32
2022-09-12T23:34:41.503Z,6.18
2022-09-12T23:37:08.772Z,4.70
2022-09-12T23:39:36.141Z,4.47
2022-09-12T23:42:03.384Z,4.70
2022-09-12T23:44:30.754Z,4.78
2022-09-12T23:46:57.948Z,5.25
2022-09-12T23:49:25.156Z,5.03
2022-09-12T23:51:52.373Z,4.43
2022-09-12T23:54:19.674Z,4.70
2022-09-12T23:56:46.930Z,4.65
2022-09-12T23:59:14.237Z,4.95
